sensor_id;sensor_type;location;lat;lon;timestamp;pressure;altitude;pressure_sealevel;temperature;humidity
20455;BME280;10386;54.314;10.022;2023-04-28T00:01:36;102097.31;;;1.36;100.00
20455;BME280;10386;54.314;10.022;2023-04-28T00:04:03;102091.00;;;1.40;100.00
20455;BME280;10386;54.314;10.022;2023-04-28T00:06:31;102093.78;;;1.34;100.00
20455;BME280;10386;54.314;10.022;2023-04-28T00:08:57;102088.38;;;1.35;100.00
20455;BME280;10386;54.314;10.022;2023-04-28T00:11:24;102087.50;;;1.35;100.00
20455;BME280;10386;54.314;10.022;2023-04-28T00:13:51;102086.66;;;1.33;100.00
20455;BME280;10386;54.314;10.022;2023-04-28T00:16:17;102085.84;;;1.25;100.00
20455;BME280;10386;54.314;10.022;2023-04-28T00:18:44;102088.75;;;1.09;100.00
20455;BME280;10386;54.314;10.022;2023-04-28T00:21:11;102072.59;;;1.18;100.00
20455;BME280;10386;54.314;10.022;2023-04-28T00:23:38;102068.97;;;1.22;100.00
20455;BME280;10386;54.314;10.022;2023-04-28T00:26:04;102066.25;;;1.25;100.00
20455;BME280;10386;54.314;10.022;2023-04-28T00:28:31;102076.88;;;1.31;100.00
20455;BME280;10386;54.314;10.022;2023-04-28T00:31:00;102075.25;;;1.18;100.00
20455;BME280;10386;54.314;10.022;2023-04-28T00:33:27;102070.91;;;1.11;100.00
20455;BME280;10386;54.314;10.022;2023-04-28T00:35:58;102075.44;;;1.04;100.00
20455;BME280;10386;54.314;10.022;2023-04-28T00:38:26;102068.31;;;1.03;100.00
20455;BME280;10386;54.314;10.022;2023-04-28T00:40:52;102070.94;;;1.06;100.00
20455;BME280;10386;54.314;10.022;2023-04-28T00:43:19;102063.78;;;1.10;100.00
20455;BME280;10386;54.314;10.022;2023-04-28T00:45:50;102062.06;;;1.06;100.00
20455;BME280;10386;54.314;10.022;2023-04-28T00:48:17;102058.34;;;1.16;100.00
20455;BME280;10386;54.314;10.022;2023-04-28T00:50:45;102057.41;;;1.18;100.00
20455;BME280;10386;54.314;10.022;2023-04-28T00:53:13;102058.44;;;1.10;100.00
20455;BME280;10386;54.314;10.022;2023-04-28T00:55:40;102047.75;;;1.10;100.00
20455;BME280;10386;54.314;10.022;2023-04-28T00:58:07;102053.88;;;1.18;100.00
20455;BME280;10386;54.314;10.022;2023-04-28T01:00:34;102044.91;;;1.22;100.00
20455;BME280;10386;54.314;10.022;2023-04-28T01:03:01;102048.38;;;1.28;100.00
20455;BME280;10386;54.314;10.022;2023-04-28T01:05:29;102048.38;;;1.27;100.00
20455;BME280;10386;54.314;10.022;2023-04-28T01:07:58;102047.66;;;1.16;100.00
20455;BME280;10386;54.314;10.022;2023-04-28T01:10:25;102046.84;;;1.09;100.00
20455;BME280;10386;54.314;10.022;2023-04-28T01:12:52;102047.72;;;1.13;100.00
20455;BME280;10386;54.314;10.022;2023-04-28T01:15:19;102050.28;;;1.17;100.00
20455;BME280;10386;54.314;10.022;2023-04-28T01:17:46;102054.81;;;1.14;100.00
20455;BME280;10386;54.314;10.022;2023-04-28T01:20:14;102056.72;;;1.06;100.00
20455;BME280;10386;54.314;10.022;2023-04-28T01:22:41;102062.31;;;0.88;100.00
20455;BME280;10386;54.314;10.022;2023-04-28T01:25:08;102057.06;;;0.76;100.00
20455;BME280;10386;54.314;10.022;2023-04-28T01:27:35;102057.03;;;0.79;100.00
20455;BME280;10386;54.314;10.022;2023-04-28T01:30:02;102060.50;;;0.90;100.00
20455;BME280;10386;54.314;10.022;2023-04-28T01:32:28;102059.56;;;0.94;100.00
20455;BME280;10386;54.314;10.022;2023-04-28T01:34:55;102046.88;;;1.06;100.00
20455;BME280;10386;54.314;10.022;2023-04-28T01:37:22;102048.63;;;1.10;100.00
20455;BME280;10386;54.314;10.022;2023-04-28T01:39:49;102056.69;;;1.09;100.00
20455;BME280;10386;54.314;10.022;2023-04-28T01:42:16;102046.16;;;0.97;100.00
20455;BME280;10386;54.314;10.022;2023-04-28T01:44:43;102050.56;;;0.99;100.00
20455;BME280;10386;54.314;10.022;2023-04-28T01:47:09;102045.25;;;0.98;100.00
20455;BME280;10386;54.314;10.022;2023-04-28T01:49:36;102044.28;;;1.02;100.00
20455;BME280;10386;54.314;10.022;2023-04-28T01:52:03;102036.16;;;1.09;100.00
20455;BME280;10386;54.314;10.022;2023-04-28T01:54:30;102036.97;;;1.16;100.00
20455;BME280;10386;54.314;10.022;2023-04-28T01:56:56;102040.72;;;1.03;100.00
20455;BME280;10386;54.314;10.022;2023-04-28T01:59:23;102034.47;;;1.02;100.00
20455;BME280;10386;54.314;10.022;2023-04-28T02:01:50;102029.03;;;1.10;100.00
20455;BME280;10386;54.314;10.022;2023-04-28T02:04:17;102031.56;;;1.19;100.00
20455;BME280;10386;54.314;10.022;2023-04-28T02:06:44;102024.31;;;1.27;100.00
20455;BME280;10386;54.314;10.022;2023-04-28T02:09:11;102018.00;;;1.32;100.00
20455;BME280;10386;54.314;10.022;2023-04-28T02:11:37;102012.63;;;1.35;100.00
20455;BME280;10386;54.314;10.022;2023-04-28T02:14:04;102003.69;;;1.36;100.00
20455;BME280;10386;54.314;10.022;2023-04-28T02:16:31;102013.63;;;1.27;100.00
20455;BME280;10386;54.314;10.022;2023-04-28T02:18:59;102011.03;;;1.21;100.00
20455;BME280;10386;54.314;10.022;2023-04-28T02:21:26;102009.22;;;1.21;100.00
20455;BME280;10386;54.314;10.022;2023-04-28T02:23:53;102011.88;;;1.24;100.00
20455;BME280;10386;54.314;10.022;2023-04-28T02:26:20;101999.34;;;1.26;100.00
20455;BME280;10386;54.314;10.022;2023-04-28T02:28:46;101994.91;;;1.25;100.00
20455;BME280;10386;54.314;10.022;2023-04-28T02:31:14;102002.97;;;1.24;100.00
20455;BME280;10386;54.314;10.022;2023-04-28T02:33:41;101984.25;;;1.22;100.00
20455;BME280;10386;54.314;10.022;2023-04-28T02:36:09;101989.69;;;1.16;100.00
20455;BME280;10386;54.314;10.022;2023-04-28T02:38:36;101987.97;;;1.12;100.00
20455;BME280;10386;54.314;10.022;2023-04-28T02:41:04;101988.78;;;1.19;100.00
20455;BME280;10386;54.314;10.022;2023-04-28T02:43:31;101982.38;;;1.29;100.00
20455;BME280;10386;54.314;10.022;2023-04-28T02:45:58;101972.41;;;1.39;100.00
20455;BME280;10386;54.314;10.022;2023-04-28T02:48:25;101973.25;;;1.41;100.00
20455;BME280;10386;54.314;10.022;2023-04-28T02:50:52;101967.84;;;1.46;100.00
20455;BME280;10386;54.314;10.022;2023-04-28T02:53:19;101963.75;;;1.23;100.00
20455;BME280;10386;54.314;10.022;2023-04-28T02:55:46;101963.63;;;1.32;100.00
20455;BME280;10386;54.314;10.022;2023-04-28T02:58:13;101959.97;;;1.35;100.00
20455;BME280;10386;54.314;10.022;2023-04-28T03:00:40;101958.16;;;1.37;100.00
20455;BME280;10386;54.314;10.022;2023-04-28T03:03:07;101957.31;;;1.35;100.00
20455;BME280;10386;54.314;10.022;2023-04-28T03:05:34;101956.41;;;1.36;100.00
20455;BME280;10386;54.314;10.022;2023-04-28T03:08:01;101949.44;;;1.27;100.00
20455;BME280;10386;54.314;10.022;2023-04-28T03:10:27;101950.44;;;1.20;100.00
20455;BME280;10386;54.314;10.022;2023-04-28T03:12:54;101945.13;;;1.17;100.00
20455;BME280;10386;54.314;10.022;2023-04-28T03:15:21;101941.56;;;1.16;100.00
20455;BME280;10386;54.314;10.022;2023-04-28T03:17:48;101938.88;;;1.18;100.00
20455;BME280;10386;54.314;10.022;2023-04-28T03:20:15;101935.41;;;1.13;100.00
20455;BME280;10386;54.314;10.022;2023-04-28T03:22:42;101937.22;;;1.11;100.00
20455;BME280;10386;54.314;10.022;2023-04-28T03:25:09;101935.41;;;1.13;100.00
20455;BME280;10386;54.314;10.022;2023-04-28T03:27:35;101933.53;;;1.18;100.00
20455;BME280;10386;54.314;10.022;2023-04-28T03:30:02;101925.53;;;1.16;100.00
20455;BME280;10386;54.314;10.022;2023-04-28T03:32:29;101925.63;;;1.10;100.00
20455;BME280;10386;54.314;10.022;2023-04-28T03:34:56;101929.28;;;1.03;100.00
20455;BME280;10386;54.314;10.022;2023-04-28T03:37:23;101926.84;;;0.90;100.00
20455;BME280;10386;54.314;10.022;2023-04-28T03:39:50;101923.28;;;0.91;100.00
20455;BME280;10386;54.314;10.022;2023-04-28T03:42:16;101918.75;;;0.96;100.00
20455;BME280;10386;54.314;10.022;2023-04-28T03:44:46;101905.31;;;0.99;100.00
20455;BME280;10386;54.314;10.022;2023-04-28T03:47:13;101913.22;;;1.06;100.00
20455;BME280;10386;54.314;10.022;2023-04-28T03:49:40;101902.47;;;1.11;100.00
20455;BME280;10386;54.314;10.022;2023-04-28T03:52:06;101899.78;;;1.11;100.00
20455;BME280;10386;54.314;10.022;2023-04-28T03:54:34;101895.34;;;1.10;100.00
20455;BME280;10386;54.314;10.022;2023-04-28T03:57:01;101890.88;;;1.10;100.00
20455;BME280;10386;54.314;10.022;2023-04-28T03:59:30;101891.81;;;1.08;100.00
20455;BME280;10386;54.314;10.022;2023-04-28T04:01:57;101881.25;;;0.99;100.00
20455;BME280;10386;54.314;10.022;2023-04-28T04:04:24;101883.25;;;0.85;100.00
20455;BME280;10386;54.314;10.022;2023-04-28T04:06:52;101888.47;;;0.94;100.00
20455;BME280;10386;54.314;10.022;2023-04-28T04:09:19;101885.06;;;0.83;100.00
20455;BME280;10386;54.314;10.022;2023-04-28T04:11:45;101887.66;;;0.87;100.00
20455;BME280;10386;54.314;10.022;2023-04-28T04:14:12;101884.13;;;0.87;100.00
20455;BME280;10386;54.314;10.022;2023-04-28T04:16:39;101888.44;;;0.95;100.00
20455;BME280;10386;54.314;10.022;2023-04-28T04:19:06;101873.97;;;1.08;100.00
20455;BME280;10386;54.314;10.022;2023-04-28T04:21:33;101873.09;;;1.08;100.00
20455;BME280;10386;54.314;10.022;2023-04-28T04:24:00;101874.72;;;1.18;100.00
20455;BME280;10386;54.314;10.022;2023-04-28T04:26:27;101862.19;;;1.18;100.00
20455;BME280;10386;54.314;10.022;2023-04-28T04:28:53;101871.34;;;1.07;100.00
20455;BME280;10386;54.314;10.022;2023-04-28T04:31:20;101864.97;;;1.14;100.00
20455;BME280;10386;54.314;10.022;2023-04-28T04:33:48;101866.75;;;1.15;100.00
20455;BME280;10386;54.314;10.022;2023-04-28T04:36:15;101860.44;;;1.19;100.00
20455;BME280;10386;54.314;10.022;2023-04-28T04:38:41;101868.34;;;1.25;100.00
20455;BME280;10386;54.314;10.022;2023-04-28T04:41:08;101865.50;;;1.33;100.00
20455;BME280;10386;54.314;10.022;2023-04-28T04:43:35;101869.09;;;1.33;100.00
20455;BME280;10386;54.314;10.022;2023-04-28T04:46:02;101865.47;;;1.36;100.00
20455;BME280;10386;54.314;10.022;2023-04-28T04:48:29;101861.00;;;1.37;100.00
20455;BME280;10386;54.314;10.022;2023-04-28T04:50:56;101854.69;;;1.39;100.00
20455;BME280;10386;54.314;10.022;2023-04-28T04:53:23;101854.63;;;1.44;100.00
20455;BME280;10386;54.314;10.022;2023-04-28T04:55:50;101858.91;;;1.54;100.00
20455;BME280;10386;54.314;10.022;2023-04-28T04:58:16;101865.91;;;1.59;100.00
20455;BME280;10386;54.314;10.022;2023-04-28T05:00:43;101845.94;;;1.78;100.00
20455;BME280;10386;54.314;10.022;2023-04-28T05:03:10;101849.31;;;1.88;100.00
20455;BME280;10386;54.314;10.022;2023-04-28T05:05:37;101838.22;;;2.07;100.00
20455;BME280;10386;54.314;10.022;2023-04-28T05:08:04;101839.56;;;2.26;100.00
20455;BME280;10386;54.314;10.022;2023-04-28T05:10:31;101834.66;;;2.46;100.00
20455;BME280;10386;54.314;10.022;2023-04-28T05:12:58;101826.16;;;2.67;100.00
20455;BME280;10386;54.314;10.022;2023-04-28T05:15:25;101812.09;;;2.92;100.00
20455;BME280;10386;54.314;10.022;2023-04-28T05:17:51;101806.16;;;3.15;100.00
20455;BME280;10386;54.314;10.022;2023-04-28T05:20:18;101802.97;;;3.34;100.00
20455;BME280;10386;54.314;10.022;2023-04-28T05:22:45;101796.91;;;3.60;100.00
20455;BME280;10386;54.314;10.022;2023-04-28T05:25:12;101785.59;;;4.09;100.00
20455;BME280;10386;54.314;10.022;2023-04-28T05:27:39;101790.38;;;4.29;100.00
20455;BME280;10386;54.314;10.022;2023-04-28T05:30:07;101781.59;;;4.51;100.00
20455;BME280;10386;54.314;10.022;2023-04-28T05:32:35;101778.75;;;4.83;100.00
20455;BME280;10386;54.314;10.022;2023-04-28T05:35:02;101779.41;;;5.17;100.00
20455;BME280;10386;54.314;10.022;2023-04-28T05:37:29;101773.38;;;5.35;100.00
20455;BME280;10386;54.314;10.022;2023-04-28T05:39:55;101763.03;;;5.47;100.00
20455;BME280;10386;54.314;10.022;2023-04-28T05:42:30;101765.53;;;5.53;100.00
20455;BME280;10386;54.314;10.022;2023-04-28T05:44:56;101747.94;;;5.92;100.00
20455;BME280;10386;54.314;10.022;2023-04-28T05:47:23;101760.06;;;6.27;100.00
20455;BME280;10386;54.314;10.022;2023-04-28T05:49:50;101754.84;;;6.45;100.00
20455;BME280;10386;54.314;10.022;2023-04-28T05:52:16;101753.88;;;6.68;100.00
20455;BME280;10386;54.314;10.022;2023-04-28T05:54:43;101762.84;;;7.11;100.00
20455;BME280;10386;54.314;10.022;2023-04-28T05:57:10;101760.47;;;7.25;100.00
20455;BME280;10386;54.314;10.022;2023-04-28T05:59:37;101765.38;;;7.55;100.00
20455;BME280;10386;54.314;10.022;2023-04-28T06:02:03;101769.56;;;7.62;100.00
20455;BME280;10386;54.314;10.022;2023-04-28T06:04:30;101779.84;;;7.54;100.00
20455;BME280;10386;54.314;10.022;2023-04-28T06:06:58;101791.13;;;7.64;100.00
20455;BME280;10386;54.314;10.022;2023-04-28T06:09:24;101797.03;;;7.73;100.00
20455;BME280;10386;54.314;10.022;2023-04-28T06:11:53;101801.13;;;7.82;100.00
20455;BME280;10386;54.314;10.022;2023-04-28T06:14:21;101810.72;;;7.69;100.00
20455;BME280;10386;54.314;10.022;2023-04-28T06:16:49;101803.09;;;7.78;100.00
20455;BME280;10386;54.314;10.022;2023-04-28T06:19:16;101809.88;;;7.68;100.00
20455;BME280;10386;54.314;10.022;2023-04-28T06:21:44;101810.53;;;7.73;100.00
20455;BME280;10386;54.314;10.022;2023-04-28T06:24:11;101814.34;;;8.08;100.00
20455;BME280;10386;54.314;10.022;2023-04-28T06:26:38;101827.03;;;7.87;100.00
20455;BME280;10386;54.314;10.022;2023-04-28T06:29:05;101829.72;;;7.67;100.00
20455;BME280;10386;54.314;10.022;2023-04-28T06:31:32;101822.06;;;7.97;100.00
20455;BME280;10386;54.314;10.022;2023-04-28T06:33:59;101831.22;;;7.74;100.00
20455;BME280;10386;54.314;10.022;2023-04-28T06:36:26;101827.06;;;7.86;100.00
20455;BME280;10386;54.314;10.022;2023-04-28T06:38:53;101827.53;;;8.35;100.00
20455;BME280;10386;54.314;10.022;2023-04-28T06:41:20;101824.50;;;9.50;100.00
20455;BME280;10386;54.314;10.022;2023-04-28T06:43:47;101815.94;;;10.58;100.00
20455;BME280;10386;54.314;10.022;2023-04-28T06:46:14;101808.25;;;11.27;100.00
20455;BME280;10386;54.314;10.022;2023-04-28T06:48:41;101806.25;;;12.47;100.00
20455;BME280;10386;54.314;10.022;2023-04-28T06:51:08;101801.03;;;11.42;100.00
20455;BME280;10386;54.314;10.022;2023-04-28T06:53:34;101797.44;;;11.57;100.00
20455;BME280;10386;54.314;10.022;2023-04-28T06:56:01;101792.22;;;12.81;100.00
20455;BME280;10386;54.314;10.022;2023-04-28T06:58:28;101777.88;;;12.37;100.00
20455;BME280;10386;54.314;10.022;2023-04-28T07:00:55;101765.09;;;11.96;100.00
20455;BME280;10386;54.314;10.022;2023-04-28T07:03:22;101779.31;;;11.26;100.00
20455;BME280;10386;54.314;10.022;2023-04-28T07:05:49;101773.19;;;10.46;100.00
20455;BME280;10386;54.314;10.022;2023-04-28T07:08:16;101782.66;;;10.54;100.00
20455;BME280;10386;54.314;10.022;2023-04-28T07:10:43;101787.28;;;10.37;100.00
20455;BME280;10386;54.314;10.022;2023-04-28T07:13:10;101779.34;;;10.17;100.00
20455;BME280;10386;54.314;10.022;2023-04-28T07:15:37;101766.97;;;9.94;100.00
20455;BME280;10386;54.314;10.022;2023-04-28T07:18:05;101787.56;;;9.98;100.00
20455;BME280;10386;54.314;10.022;2023-04-28T07:20:32;101770.19;;;9.85;100.00
20455;BME280;10386;54.314;10.022;2023-04-28T07:22:58;101764.94;;;9.82;100.00
20455;BME280;10386;54.314;10.022;2023-04-28T07:25:31;101767.47;;;9.85;100.00
20455;BME280;10386;54.314;10.022;2023-04-28T07:28:02;101772.91;;;10.02;100.00
20455;BME280;10386;54.314;10.022;2023-04-28T07:30:29;101761.56;;;10.11;100.00
20455;BME280;10386;54.314;10.022;2023-04-28T07:32:56;101760.03;;;10.23;100.00
20455;BME280;10386;54.314;10.022;2023-04-28T07:35:24;101760.13;;;10.37;100.00
20455;BME280;10386;54.314;10.022;2023-04-28T07:37:51;101750.84;;;10.41;100.00
20455;BME280;10386;54.314;10.022;2023-04-28T07:40:18;101747.00;;;10.45;100.00
20455;BME280;10386;54.314;10.022;2023-04-28T07:42:46;101743.06;;;10.50;100.00
20455;BME280;10386;54.314;10.022;2023-04-28T07:45:13;101747.72;;;10.79;100.00
20455;BME280;10386;54.314;10.022;2023-04-28T07:47:41;101730.63;;;11.08;100.00
20455;BME280;10386;54.314;10.022;2023-04-28T07:50:10;101723.56;;;11.19;100.00
20455;BME280;10386;54.314;10.022;2023-04-28T07:52:37;101715.19;;;11.38;100.00
20455;BME280;10386;54.314;10.022;2023-04-28T07:55:05;101717.50;;;11.30;100.00
20455;BME280;10386;54.314;10.022;2023-04-28T07:57:32;101709.63;;;11.39;100.00
20455;BME280;10386;54.314;10.022;2023-04-28T08:00:00;101700.69;;;11.67;100.00
20455;BME280;10386;54.314;10.022;2023-04-28T08:02:28;101688.19;;;11.78;100.00
20455;BME280;10386;54.314;10.022;2023-04-28T08:04:55;101675.97;;;11.85;100.00
20455;BME280;10386;54.314;10.022;2023-04-28T08:07:23;101676.13;;;12.10;100.00
20455;BME280;10386;54.314;10.022;2023-04-28T08:09:52;101673.00;;;12.30;100.00
20455;BME280;10386;54.314;10.022;2023-04-28T08:12:20;101669.44;;;12.16;100.00
20455;BME280;10386;54.314;10.022;2023-04-28T08:14:47;101655.59;;;12.33;100.00
20455;BME280;10386;54.314;10.022;2023-04-28T08:17:25;101660.00;;;12.07;100.00
20455;BME280;10386;54.314;10.022;2023-04-28T08:19:52;101672.59;;;12.50;100.00
20455;BME280;10386;54.314;10.022;2023-04-28T08:22:19;101647.81;;;12.40;100.00
20455;BME280;10386;54.314;10.022;2023-04-28T08:24:46;101627.03;;;12.26;100.00
20455;BME280;10386;54.314;10.022;2023-04-28T08:27:13;101627.47;;;12.32;100.00
20455;BME280;10386;54.314;10.022;2023-04-28T08:29:40;101625.88;;;12.56;100.00
20455;BME280;10386;54.314;10.022;2023-04-28T08:32:08;101610.59;;;12.80;100.00
20455;BME280;10386;54.314;10.022;2023-04-28T08:34:35;101593.00;;;12.59;100.00
20455;BME280;10386;54.314;10.022;2023-04-28T08:37:02;101559.94;;;12.51;100.00
20455;BME280;10386;54.314;10.022;2023-04-28T08:39:29;101561.94;;;12.61;100.00
20455;BME280;10386;54.314;10.022;2023-04-28T08:41:57;101548.50;;;12.58;100.00
20455;BME280;10386;54.314;10.022;2023-04-28T08:44:24;101554.66;;;12.74;100.00
20455;BME280;10386;54.314;10.022;2023-04-28T08:46:53;101526.63;;;12.60;100.00
20455;BME280;10386;54.314;10.022;2023-04-28T08:49:22;101537.84;;;12.94;100.00
20455;BME280;10386;54.314;10.022;2023-04-28T08:51:58;101503.41;;;12.93;100.00
20455;BME280;10386;54.314;10.022;2023-04-28T08:54:30;101498.94;;;12.92;100.00
20455;BME280;10386;54.314;10.022;2023-04-28T08:56:59;101477.41;;;12.88;100.00
20455;BME280;10386;54.314;10.022;2023-04-28T08:59:26;101455.94;;;12.71;100.00
20455;BME280;10386;54.314;10.022;2023-04-28T09:01:53;101484.22;;;13.20;100.00
20455;BME280;10386;54.314;10.022;2023-04-28T09:04:20;101495.66;;;13.50;100.00
20455;BME280;10386;54.314;10.022;2023-04-28T09:06:48;101510.03;;;13.64;100.00
20455;BME280;10386;54.314;10.022;2023-04-28T09:09:27;101481.69;;;13.90;100.00
20455;BME280;10386;54.314;10.022;2023-04-28T09:12:01;101510.25;;;13.61;100.00
20455;BME280;10386;54.314;10.022;2023-04-28T09:14:35;101514.59;;;13.76;100.00
20455;BME280;10386;54.314;10.022;2023-04-28T09:17:08;101519.00;;;14.02;100.00
20455;BME280;10386;54.314;10.022;2023-04-28T09:19:39;101505.22;;;13.68;100.00
20455;BME280;10386;54.314;10.022;2023-04-28T09:22:11;101520.69;;;13.79;100.00
20455;BME280;10386;54.314;10.022;2023-04-28T09:24:41;101517.25;;;14.01;100.00
20455;BME280;10386;54.314;10.022;2023-04-28T09:27:12;101528.38;;;14.34;100.00
20455;BME280;10386;54.314;10.022;2023-04-28T09:29:52;101485.97;;;14.41;100.00
20455;BME280;10386;54.314;10.022;2023-04-28T09:32:21;101460.75;;;14.01;100.00
20455;BME280;10386;54.314;10.022;2023-04-28T09:34:50;101487.53;;;14.56;100.00
20455;BME280;10386;54.314;10.022;2023-04-28T09:37:27;101493.72;;;14.47;100.00
20455;BME280;10386;54.314;10.022;2023-04-28T09:40:08;101463.06;;;14.07;99.89
20455;BME280;10386;54.314;10.022;2023-04-28T09:42:40;101496.31;;;14.25;98.63
20455;BME280;10386;54.314;10.022;2023-04-28T09:47:37;101495.63;;;14.34;98.44
20455;BME280;10386;54.314;10.022;2023-04-28T09:50:06;101524.81;;;14.57;100.00
20455;BME280;10386;54.314;10.022;2023-04-28T09:52:37;101529.94;;;15.07;100.00
20455;BME280;10386;54.314;10.022;2023-04-28T09:55:06;101491.91;;;14.69;95.81
20455;BME280;10386;54.314;10.022;2023-04-28T09:57:37;101520.47;;;15.00;96.88
20455;BME280;10386;54.314;10.022;2023-04-28T10:00:06;101505.25;;;14.50;97.75
20455;BME280;10386;54.314;10.022;2023-04-28T10:02:36;101523.59;;;14.61;99.10
20455;BME280;10386;54.314;10.022;2023-04-28T10:05:07;101493.63;;;14.36;96.56
20455;BME280;10386;54.314;10.022;2023-04-28T10:07:37;101504.31;;;14.62;96.90
20455;BME280;10386;54.314;10.022;2023-04-28T10:10:06;101509.91;;;14.61;97.33
20455;BME280;10386;54.314;10.022;2023-04-28T10:12:33;101501.03;;;14.23;97.44
20455;BME280;10386;54.314;10.022;2023-04-28T10:15:04;101513.00;;;14.33;98.17
20455;BME280;10386;54.314;10.022;2023-04-28T10:17:32;101512.94;;;14.45;97.64
20455;BME280;10386;54.314;10.022;2023-04-28T10:20:01;101499.66;;;14.05;96.61
20455;BME280;10386;54.314;10.022;2023-04-28T10:27:42;101509.75;;;14.51;98.64
20455;BME280;10386;54.314;10.022;2023-04-28T10:30:20;101497.88;;;14.40;98.06
20455;BME280;10386;54.314;10.022;2023-04-28T10:35:44;101513.88;;;14.57;99.18
20455;BME280;10386;54.314;10.022;2023-04-28T10:40:46;101492.59;;;14.49;97.48
20455;BME280;10386;54.314;10.022;2023-04-28T10:56:20;101477.59;;;15.00;97.11
20455;BME280;10386;54.314;10.022;2023-04-28T10:58:48;101460.06;;;14.92;94.99
20455;BME280;10386;54.314;10.022;2023-04-28T11:01:29;101434.44;;;14.82;93.55
20455;BME280;10386;54.314;10.022;2023-04-28T11:04:08;101455.56;;;14.80;94.16
20455;BME280;10386;54.314;10.022;2023-04-28T11:06:43;101457.16;;;14.82;95.45
20455;BME280;10386;54.314;10.022;2023-04-28T11:11:38;101480.47;;;15.10;96.01
20455;BME280;10386;54.314;10.022;2023-04-28T11:17:05;101447.53;;;15.66;92.98
20455;BME280;10386;54.314;10.022;2023-04-28T11:19:42;101431.88;;;15.79;92.37
20455;BME280;10386;54.314;10.022;2023-04-28T11:22:15;101427.03;;;15.60;91.46
20455;BME280;10386;54.314;10.022;2023-04-28T11:25:15;101426.56;;;15.44;92.34
20455;BME280;10386;54.314;10.022;2023-04-28T11:27:42;101434.22;;;15.07;92.38
20455;BME280;10386;54.314;10.022;2023-04-28T11:30:19;101428.38;;;15.11;92.08
20455;BME280;10386;54.314;10.022;2023-04-28T11:32:48;101440.56;;;14.96;92.73
20455;BME280;10386;54.314;10.022;2023-04-28T11:35:16;101422.34;;;14.73;92.13
20455;BME280;10386;54.314;10.022;2023-04-28T11:37:43;101446.66;;;15.11;92.16
20455;BME280;10386;54.314;10.022;2023-04-28T11:40:13;101420.78;;;15.04;90.23
20455;BME280;10386;54.314;10.022;2023-04-28T11:42:48;101417.78;;;14.96;90.46
20455;BME280;10386;54.314;10.022;2023-04-28T11:45:16;101432.47;;;15.06;91.31
20455;BME280;10386;54.314;10.022;2023-04-28T11:47:48;101432.03;;;15.33;91.53
20455;BME280;10386;54.314;10.022;2023-04-28T11:50:35;101440.50;;;15.52;91.93
20455;BME280;10386;54.314;10.022;2023-04-28T11:53:03;101428.56;;;15.42;90.53
20455;BME280;10386;54.314;10.022;2023-04-28T11:55:31;101406.38;;;15.02;88.91
20455;BME280;10386;54.314;10.022;2023-04-28T11:58:23;101419.19;;;15.23;89.79
20455;BME280;10386;54.314;10.022;2023-04-28T12:01:08;101405.75;;;15.20;89.10
20455;BME280;10386;54.314;10.022;2023-04-28T12:03:45;101403.66;;;15.56;88.05
20455;BME280;10386;54.314;10.022;2023-04-28T12:06:21;101378.97;;;15.78;86.89
20455;BME280;10386;54.314;10.022;2023-04-28T12:09:17;101382.03;;;15.96;87.52
20455;BME280;10386;54.314;10.022;2023-04-28T12:12:04;101384.81;;;15.85;86.74
20455;BME280;10386;54.314;10.022;2023-04-28T12:14:52;101384.41;;;16.21;86.72
20455;BME280;10386;54.314;10.022;2023-04-28T12:17:27;101378.06;;;16.20;85.16
20455;BME280;10386;54.314;10.022;2023-04-28T12:19:55;101390.50;;;16.24;85.79
20455;BME280;10386;54.314;10.022;2023-04-28T12:22:23;101357.44;;;16.05;83.40
20455;BME280;10386;54.314;10.022;2023-04-28T12:27:30;101380.31;;;15.84;85.65
20455;BME280;10386;54.314;10.022;2023-04-28T12:29:57;101356.34;;;15.65;85.45
20455;BME280;10386;54.314;10.022;2023-04-28T12:32:40;101365.47;;;15.44;86.02
20455;BME280;10386;54.314;10.022;2023-04-28T12:35:10;101367.22;;;15.34;85.72
20455;BME280;10386;54.314;10.022;2023-04-28T12:37:37;101366.63;;;15.30;86.19
20455;BME280;10386;54.314;10.022;2023-04-28T12:40:05;101364.22;;;15.26;85.74
20455;BME280;10386;54.314;10.022;2023-04-28T12:42:33;101374.31;;;15.47;87.23
20455;BME280;10386;54.314;10.022;2023-04-28T12:45:00;101389.91;;;15.78;87.28
20455;BME280;10386;54.314;10.022;2023-04-28T12:47:27;101356.13;;;15.57;85.52
20455;BME280;10386;54.314;10.022;2023-04-28T12:49:53;101356.94;;;15.69;85.11
20455;BME280;10386;54.314;10.022;2023-04-28T12:52:20;101351.16;;;15.51;84.90
20455;BME280;10386;54.314;10.022;2023-04-28T12:54:48;101362.00;;;15.09;85.33
20455;BME280;10386;54.314;10.022;2023-04-28T12:57:15;101383.25;;;15.27;86.96
20455;BME280;10386;54.314;10.022;2023-04-28T12:59:44;101382.84;;;15.65;86.73
20455;BME280;10386;54.314;10.022;2023-04-28T13:02:13;101368.34;;;15.42;86.19
20455;BME280;10386;54.314;10.022;2023-04-28T13:04:40;101375.06;;;15.49;86.88
20455;BME280;10386;54.314;10.022;2023-04-28T13:07:08;101341.88;;;15.32;85.03
20455;BME280;10386;54.314;10.022;2023-04-28T13:09:35;101364.84;;;15.18;86.88
20455;BME280;10386;54.314;10.022;2023-04-28T13:12:04;101382.50;;;15.15;88.24
20455;BME280;10386;54.314;10.022;2023-04-28T13:14:31;101382.06;;;15.31;87.67
20455;BME280;10386;54.314;10.022;2023-04-28T13:16:59;101378.03;;;15.14;88.35
20455;BME280;10386;54.314;10.022;2023-04-28T13:19:27;101389.44;;;15.18;89.94